バンクーバー の空港の天気 - METARとTAF

バンクーバー国際空港 ( CYVR / YVR ) - カナダ ブリティッシュコロンビア州バンクーバー
飛行場実況気象(Metar)
観測時間09/24 16:00 PDT (09/24 23:00 UTC)
風向・風速西 3m/s
視程10km以上
天気現象
少しの雲 雲底高度 4570m
少しの雲 雲底高度 6100m
全天の8割程度の雲 雲底高度 7920m
気温17℃
湿度77%
気圧1015.5hPa
METARCYVR 242300Z 28005KT 30SM FEW150 FEW200 BKN260 17/13 A2998 RMK ACC1CI2CS5 ACC TR HALO SLP155 DENSITY ALT 300FT
過去の天気等 Google飛行場航空写真 Wunderground天気予報

過去48時間のMETAR

飛行場予報(TAF)
発表時間: 9/24 16:40 PDT (9/24 23:40 UTC)
予報対象時間: 24日17時 PDT ~ 25日23時 PDT
風向・風速西 3m/s
視程10km以上
少しの雲 雲底高度 4570m
全天の4割程度の雲 雲底高度 7320m
24日22時 PDT から
風向・風速不定 2m/s
視程10km以上
全天の4割程度の雲 雲底高度 4570m
25日3時 PDT から
風向・風速東 3m/s
視程10km以上
少しの雲 雲底高度 4570m
25日3時 PDT ~ 25日9時 PDT に一時的に
視程4830m
天気現象もや
25日3時 PDT から 確率 30% で
視程1610m
天気現象もや
25日11時 PDT から
風向・風速東南東 4m/s
視程10km以上
少しの雲 雲底高度 2130m
全天の4割程度の雲 雲底高度 4570m
25日18時 PDT から
風向・風速東南東 4m/s
視程10km以上
全天の4割程度の雲 雲底高度 2130m
全天の8割程度の雲 雲底高度 4570m
TAF CYVR 242340Z 2500/2606 27006KT P6SM FEW150 SCT240
FM250500 VRB03KT P6SM SCT150
FM251000 10006KT P6SM FEW150
TEMPO 2510/2516 3SM BR
PROB30 2510/2515 1SM BR
FM251800 12008KT P6SM FEW070 SCT150
FM260100 12008KT P6SM SCT070 BKN150 RMK NXT FCST BY 250300Z